Aviation Digital Data Service (ADDS)

Output produced by METARs form (1827 UTC 22 November 2017)
found at http://www.aviationweather.gov/adds/metars/
 
TAF MDST 221600Z 2218/2318 12008KT 9999 SCT025 
     FM2300 SCT018
       
TAF MDPP 221600Z 2218/2318 09010KT 9999 SCT022 
     BECMG 2223/2301 00000KT
       
TAF MDLR 221600Z 2218/2318 12010KT 9999 SCT020 
     BECMG 2300/2302 00000KT
       
TAF MDSD 221600Z 2218/2318 13006KT 9999 FEW016CB SCT018 
     BECMG 2302/2304 03004KT
       
TAF MDBH 221600Z 2218/2318 13012KT 9999 FEW024 SCT300 
     PROB30 2219/2223 8000 SH FEW018CB FEW024 BKN300
       
TAF MDPC 221600Z 2218/2318 13010KT 9999 FEW022 
     BECMG 2300/2302 VRB03KT